Time;durP1;ratioP1;P1;durP2;ratioP2;P2;SDS_P1;SDS_P2;PMS_P1;PMS_P2;Temp;Humidity;BMP_temperature;BMP_pressure;BME280_temperature;BME280_humidity;BME280_pressure;Samples;Min_cycle;Max_cycle;Signal;HPM_P1;HPM_P2
2022/08/30 00:02:55;;;;;;;17.38;13.63;;;;;;;22.57;63.50;99315.38;5012822;28;20037;-85
2022/08/30 00:05:22;;;;;;;22.48;13.70;;;;;;;22.43;63.94;99318.28;4995982;28;20026;-85
2022/08/30 00:07:48;;;;;;;22.42;12.88;;;;;;;22.25;64.19;99307.88;4993944;28;20030;-85
2022/08/30 00:10:14;;;;;;;22.63;13.85;;;;;;;22.21;64.72;99298.56;4991485;28;20481;-85
2022/08/30 00:12:39;;;;;;;20.52;13.70;;;;;;;22.16;64.57;99307.53;4991363;28;20424;-85
2022/08/30 00:15:05;;;;;;;16.52;13.57;;;;;;;22.02;64.28;99303.56;4994935;28;20033;-85
2022/08/30 00:17:32;;;;;;;18.35;13.02;;;;;;;22.12;63.67;99306.75;4995704;28;20417;-85
2022/08/30 00:19:57;;;;;;;20.60;14.05;;;;;;;22.14;63.73;99321.38;4992586;28;20071;-85
2022/08/30 00:22:23;;;;;;;17.95;12.88;;;;;;;22.00;63.32;99308.06;4994322;28;20416;-85
2022/08/30 00:24:48;;;;;;;16.80;12.25;;;;;;;22.02;63.69;99314.97;4996224;28;20025;-85
2022/08/30 00:27:14;;;;;;;21.05;12.95;;;;;;;22.05;63.39;99318.19;4994217;28;20571;-85
2022/08/30 00:29:40;;;;;;;18.55;13.88;;;;;;;22.14;63.18;99315.69;4993964;28;20165;-85
2022/08/30 00:32:05;;;;;;;19.73;13.00;;;;;;;22.08;62.79;99306.78;4995572;28;20033;-85
2022/08/30 00:34:31;;;;;;;17.70;13.20;;;;;;;22.06;62.85;99311.25;4995952;28;20021;-85
2022/08/30 00:36:58;;;;;;;18.35;13.52;;;;;;;22.11;63.14;99323.03;5012982;28;20037;-85
2022/08/30 00:39:24;;;;;;;18.38;12.60;;;;;;;22.16;62.90;99316.06;5013456;28;20017;-85
2022/08/30 00:41:49;;;;;;;14.05;12.52;;;;;;;22.36;62.22;99321.22;5011076;28;20485;-85
2022/08/30 00:44:15;;;;;;;18.20;11.98;;;;;;;22.29;61.99;99317.19;5012148;28;20072;-85
2022/08/30 00:46:41;;;;;;;21.40;13.52;;;;;;;22.26;62.30;99318.03;4994272;28;20030;-85
2022/08/30 00:49:11;;;;;;;19.83;12.88;;;;;;;22.41;62.34;99323.63;4992801;28;20417;-85
2022/08/30 00:51:38;;;;;;;21.65;13.65;;;;;;;22.39;61.99;99317.53;4994574;28;20030;-85
2022/08/30 00:54:04;;;;;;;16.98;12.93;;;;;;;22.27;62.21;99299.72;4991777;28;20071;-85
2022/08/30 00:56:32;;;;;;;26.42;15.00;;;;;;;22.28;62.28;99324.13;4991414;28;20026;-85
2022/08/30 00:59:00;;;;;;;19.65;13.20;;;;;;;22.31;62.72;99331.03;5007495;28;20018;-85
2022/08/30 01:01:27;;;;;;;19.13;13.10;;;;;;;22.43;61.69;99333.38;4989898;28;20037;-85
2022/08/30 01:03:53;;;;;;;18.75;13.00;;;;;;;22.54;61.64;99333.28;5011876;28;20030;-85
2022/08/30 01:06:18;;;;;;;19.83;14.02;;;;;;;22.48;61.14;99328.44;4994716;28;20026;-85
2022/08/30 01:08:46;;;;;;;18.70;12.32;;;;;;;22.56;60.81;99339.41;4993627;28;20029;-85
2022/08/30 01:11:16;;;;;;;18.52;12.60;;;;;;;22.35;61.19;99319.59;4994726;28;20030;-85
2022/08/30 01:13:42;;;;;;;16.05;12.98;;;;;;;22.43;61.00;99333.38;4992813;28;20025;-85
2022/08/30 01:16:08;;;;;;;18.50;12.80;;;;;;;22.44;61.05;99340.69;4991768;28;20041;-85
2022/08/30 01:18:35;;;;;;;20.75;12.48;;;;;;;22.48;60.60;99335.00;5011019;28;20018;-85
2022/08/30 01:21:02;;;;;;;13.80;12.05;;;;;;;22.60;60.19;99338.56;4994050;28;20513;-85
2022/08/30 01:23:30;;;;;;;14.35;12.60;;;;;;;22.51;60.75;99337.00;4995241;28;20481;-85
2022/08/30 01:25:57;;;;;;;20.60;11.82;;;;;;;22.53;60.13;99316.63;4995132;28;20216;-85
2022/08/30 01:28:25;;;;;;;14.90;11.77;;;;;;;22.49;60.81;99328.06;5012758;28;20030;-85
2022/08/30 01:30:50;;;;;;;16.17;12.60;;;;;;;22.26;61.70;99323.72;4991266;28;20125;-85
2022/08/30 01:33:18;;;;;;;16.15;11.70;;;;;;;22.37;61.69;99326.47;4993852;28;20125;-85
2022/08/30 01:35:55;;;;;;;19.52;13.00;;;;;;;22.47;61.72;99324.78;4984933;28;20030;-85
2022/08/30 01:38:25;;;;;;;19.42;13.07;;;;;;;22.38;61.62;99313.06;5007885;28;20040;-85
2022/08/30 01:40:58;;;;;;;18.80;13.60;;;;;;;22.23;62.33;99310.34;4993702;28;20535;-85
2022/08/30 01:43:24;;;;;;;19.60;12.07;;;;;;;22.19;62.04;99305.91;4993932;28;20133;-85
2022/08/30 01:45:49;;;;;;;19.45;12.90;;;;;;;22.16;62.05;99316.91;4994000;28;20127;-85
2022/08/30 01:48:15;;;;;;;16.02;12.55;;;;;;;22.11;62.13;99308.78;4993494;28;20057;-85
2022/08/30 01:50:41;;;;;;;24.75;12.45;;;;;;;22.07;62.39;99322.25;5011909;28;20569;-85
2022/08/30 01:53:09;;;;;;;18.50;12.60;;;;;;;22.18;61.99;99319.31;4993554;28;20171;-85
2022/08/30 01:55:37;;;;;;;16.65;12.68;;;;;;;21.73;62.44;99274.47;4993349;28;20029;-85
2022/08/30 01:58:03;;;;;;;17.42;13.07;;;;;;;21.93;62.72;99308.91;4994579;28;20032;-85
2022/08/30 02:00:29;;;;;;;16.67;13.82;;;;;;;21.66;63.23;99292.41;4994299;28;20030;-85
2022/08/30 02:02:56;;;;;;;19.45;13.75;;;;;;;21.72;63.72;99319.22;4992937;28;20500;-85
2022/08/30 02:05:23;;;;;;;18.23;13.38;;;;;;;21.71;64.16;99317.59;4992351;28;20040;-85
2022/08/30 02:07:48;;;;;;;20.27;14.05;;;;;;;21.45;64.60;99281.94;4988441;28;20022;-85
2022/08/30 02:10:14;;;;;;;15.52;13.38;;;;;;;21.57;64.52;99304.22;4993073;28;20131;-85
2022/08/30 02:12:40;;;;;;;17.60;14.48;;;;;;;21.57;64.82;99303.41;4991803;28;20033;-85
2022/08/30 02:15:07;;;;;;;25.05;14.45;;;;;;;21.60;64.57;99299.75;4993544;28;20083;-85
2022/08/30 02:17:33;;;;;;;18.27;13.82;;;;;;;21.65;64.28;99302.16;4994290;28;20053;-85
2022/08/30 02:19:58;;;;;;;15.70;13.73;;;;;;;21.46;64.19;99270.13;5011614;28;20412;-85
2022/08/30 02:22:24;;;;;;;19.13;13.95;;;;;;;21.68;63.83;99301.34;4993591;28;20029;-85
2022/08/30 02:24:49;;;;;;;20.65;13.88;;;;;;;21.64;64.07;99300.53;4993294;28;20563;-85
2022/08/30 02:27:15;;;;;;;21.27;15.20;;;;;;;21.56;63.47;99281.88;5008443;28;20064;-85
2022/08/30 02:29:41;;;;;;;20.58;14.40;;;;;;;21.55;63.12;99275.38;4987892;28;20408;-85
2022/08/30 02:32:07;;;;;;;17.88;12.40;;;;;;;21.57;63.32;99275.78;4987402;28;20096;-85
2022/08/30 02:34:32;;;;;;;15.88;11.90;;;;;;;21.85;62.84;99310.22;5008567;28;20472;-85
2022/08/30 02:36:58;;;;;;;18.95;13.85;;;;;;;21.97;62.05;99309.72;4992173;28;20029;-84
2022/08/30 02:39:23;;;;;;;17.27;13.10;;;;;;;21.99;61.65;99304.41;4990517;28;20413;-85
2022/08/30 02:41:49;;;;;;;27.27;13.20;;;;;;;22.13;61.36;99314.06;4992181;28;20051;-85
2022/08/30 02:44:14;;;;;;;22.73;14.15;;;;;;;22.19;61.12;99311.59;4991561;28;20231;-85
2022/08/30 02:46:40;;;;;;;19.27;12.43;;;;;;;22.11;61.21;99305.94;4991122;28;20034;-85
2022/08/30 02:49:07;;;;;;;22.58;13.45;;;;;;;22.09;60.91;99296.22;4993792;28;20060;-85
2022/08/30 02:51:33;;;;;;;17.05;12.93;;;;;;;22.19;60.65;99303.84;5011432;28;20037;-85
2022/08/30 02:53:59;;;;;;;24.80;13.25;;;;;;;22.12;61.01;99301.06;5010510;28;20028;-85
2022/08/30 02:56:24;;;;;;;20.00;14.48;;;;;;;22.21;60.82;99309.13;4993831;28;20116;-85
2022/08/30 02:58:50;;;;;;;26.23;13.38;;;;;;;22.10;61.17;99310.00;4993851;28;20488;-85
2022/08/30 03:01:17;;;;;;;21.27;13.70;;;;;;;22.05;61.27;99298.25;4989671;28;20021;-85
2022/08/30 03:03:44;;;;;;;16.13;12.55;;;;;;;22.04;61.26;99297.47;4993139;28;20393;-85
2022/08/30 03:06:10;;;;;;;22.98;12.43;;;;;;;22.20;60.59;99290.44;4992703;28;20025;-85
2022/08/30 03:08:36;;;;;;;17.70;13.52;;;;;;;22.37;60.18;99297.19;4991855;28;20018;-85
2022/08/30 03:11:02;;;;;;;23.02;12.57;;;;;;;22.53;59.61;99308.09;4993572;28;20485;-85
2022/08/30 03:13:28;;;;;;;22.60;13.20;;;;;;;22.62;59.32;99304.75;4994680;28;20025;-85
2022/08/30 03:15:54;;;;;;;28.30;13.85;;;;;;;22.40;59.91;99300.03;4994621;28;20025;-85
2022/08/30 03:18:20;;;;;;;19.45;13.27;;;;;;;22.22;60.84;99314.41;5013739;28;20022;-85
2022/08/30 03:20:47;;;;;;;28.67;13.55;;;;;;;22.37;60.33;99308.59;4993405;28;20519;-85
2022/08/30 03:23:14;;;;;;;35.80;14.13;;;;;;;22.14;60.95;99310.00;5012718;28;20076;-85
2022/08/30 03:25:39;;;;;;;35.88;14.05;;;;;;;22.10;61.03;99318.56;5010394;28;20488;-85
2022/08/30 03:28:06;;;;;;;20.83;14.07;;;;;;;21.96;61.66;99305.25;5008444;28;20079;-85
2022/08/30 03:30:32;;;;;;;21.25;15.38;;;;;;;21.68;61.17;99246.47;4994216;28;20026;-85
2022/08/30 03:32:58;;;;;;;19.13;14.63;;;;;;;21.94;61.83;99324.75;5012362;28;20507;-84
2022/08/30 03:35:24;;;;;;;23.65;13.55;;;;;;;21.61;62.66;99312.75;4994666;28;20026;-85
2022/08/30 03:37:50;;;;;;;24.60;15.63;;;;;;;21.63;62.84;99313.13;5012563;28;20105;-84
2022/08/30 03:40:17;;;;;;;19.00;14.13;;;;;;;21.64;63.29;99323.28;4994595;28;20456;-85
2022/08/30 03:42:46;;;;;;;28.33;15.13;;;;;;;21.72;62.92;99315.56;4994119;28;20487;-85
2022/08/30 03:45:14;;;;;;;20.83;13.82;;;;;;;21.91;62.73;99330.50;4994897;28;20497;-85
2022/08/30 03:47:40;;;;;;;23.63;14.50;;;;;;;21.98;62.65;99334.13;4996224;28;20036;-85
2022/08/30 03:50:06;;;;;;;20.17;14.23;;;;;;;21.96;62.03;99315.81;4991860;28;20108;-85
2022/08/30 03:52:32;;;;;;;24.13;14.50;;;;;;;22.00;62.41;99323.13;4995241;28;20030;-85
2022/08/30 03:54:59;;;;;;;23.92;13.20;;;;;;;22.07;62.10;99322.25;4996127;28;20033;-85
2022/08/30 03:57:24;;;;;;;17.73;13.15;;;;;;;22.16;61.54;99330.31;5011843;28;20160;-85
2022/08/30 03:59:50;;;;;;;15.98;13.68;;;;;;;22.29;60.85;99328.59;4994884;28;20434;-85
2022/08/30 04:02:16;;;;;;;22.83;14.95;;;;;;;22.33;60.34;99330.63;4992758;28;20025;-85
2022/08/30 04:04:41;;;;;;;28.55;15.27;;;;;;;22.32;60.05;99337.50;4994994;28;20113;-85
2022/08/30 04:07:08;;;;;;;19.40;13.70;;;;;;;22.21;59.99;99334.75;4995782;28;20033;-85
2022/08/30 04:09:33;;;;;;;28.75;14.80;;;;;;;22.10;60.56;99338.50;5014271;28;20037;-85
2022/08/30 04:11:59;;;;;;;22.13;14.98;;;;;;;22.07;60.88;99330.78;4996590;28;20029;-85
2022/08/30 04:14:25;;;;;;;26.38;14.65;;;;;;;22.11;60.84;99333.63;4994860;28;20091;-86
2022/08/30 04:16:50;;;;;;;21.33;12.85;;;;;;;22.08;61.10;99332.41;4994149;28;20450;-85
2022/08/30 04:19:16;;;;;;;19.02;12.88;;;;;;;22.20;60.68;99336.00;5013800;28;20378;-85
2022/08/30 04:21:43;;;;;;;17.88;13.65;;;;;;;22.19;60.69;99345.78;4991486;28;20121;-85
2022/08/30 04:24:12;;;;;;;17.45;13.20;;;;;;;22.07;60.63;99345.03;4990156;28;20030;-85
2022/08/30 04:26:37;;;;;;;23.00;13.65;;;;;;;22.23;60.21;99353.06;5009797;28;20085;-85
2022/08/30 04:29:03;;;;;;;25.45;15.18;;;;;;;22.27;59.95;99344.50;4990385;28;20576;-85
2022/08/30 04:31:29;;;;;;;24.17;13.27;;;;;;;22.23;59.91;99343.69;4992211;28;20021;-85
2022/08/30 04:33:55;;;;;;;16.40;13.18;;;;;;;22.36;59.42;99346.88;5011335;28;20111;-85
2022/08/30 04:36:21;;;;;;;16.55;12.68;;;;;;;22.38;59.14;99352.94;5011633;28;20029;-85
2022/08/30 04:38:46;;;;;;;17.45;14.02;;;;;;;22.21;59.25;99309.94;4992319;28;20022;-85
2022/08/30 04:41:15;;;;;;;22.60;13.25;;;;;;;22.47;59.12;99361.84;5012690;28;20033;-86
2022/08/30 04:43:42;;;;;;;31.38;13.90;;;;;;;22.42;58.63;99339.47;4990232;28;20133;-85
2022/08/30 04:46:12;;;;;;;27.45;13.45;;;;;;;22.40;58.64;99350.47;4994303;28;20556;-85
2022/08/30 04:48:38;;;;;;;26.63;13.43;;;;;;;22.52;59.02;99372.81;4992366;28;20073;-85
2022/08/30 04:51:11;;;;;;;29.63;13.68;;;;;;;22.52;59.08;99354.91;4994178;28;20527;-85
2022/08/30 04:53:37;;;;;;;46.78;14.90;;;;;;;22.49;59.23;99367.94;4994408;28;20056;-86
2022/08/30 04:56:15;;;;;;;29.38;15.20;;;;;;;22.34;58.77;99333.03;5011398;28;20552;-85
2022/08/30 04:58:42;;;;;;;27.70;15.07;;;;;;;22.61;58.65;99372.31;4990143;28;20109;-85
2022/08/30 05:01:23;;;;;;;28.17;13.73;;;;;;;22.56;58.89;99361.38;4992646;28;20064;-86
2022/08/30 05:03:50;;;;;;;28.90;13.73;;;;;;;22.52;58.94;99369.94;5011691;28;20018;-85
2022/08/30 05:06:17;;;;;;;35.78;14.90;;;;;;;22.45;59.20;99364.28;4995065;28;20026;-86
2022/08/30 05:08:43;;;;;;;21.58;13.52;;;;;;;22.42;59.41;99365.94;4995367;28;20036;-85
2022/08/30 05:11:08;;;;;;;21.80;15.38;;;;;;;22.45;59.78;99375.69;4995042;28;20034;-85
2022/08/30 05:13:35;;;;;;;20.50;14.38;;;;;;;22.45;60.05;99381.41;4995576;28;20045;-85
2022/08/30 05:16:02;;;;;;;21.13;15.65;;;;;;;22.44;59.94;99391.16;4995012;28;20104;-85
2022/08/30 05:18:28;;;;;;;26.90;15.73;;;;;;;22.37;59.97;99376.97;5011350;28;20064;-85
2022/08/30 05:21:12;;;;;;;28.88;14.13;;;;;;;22.35;60.22;99360.28;4993065;28;20033;-85
2022/08/30 05:23:38;;;;;;;23.63;14.23;;;;;;;22.46;59.87;99365.91;4994174;28;20026;-85
2022/08/30 05:26:17;;;;;;;21.35;14.48;;;;;;;22.54;59.67;99380.94;5012755;28;20499;-85
2022/08/30 05:28:43;;;;;;;29.17;14.27;;;;;;;22.60;59.18;99381.31;4992872;28;20109;-85
2022/08/30 05:31:24;;;;;;;18.90;13.27;;;;;;;22.80;59.28;99390.09;4993757;28;20405;-85
2022/08/30 05:33:51;;;;;;;27.92;13.02;;;;;;;22.63;58.83;99351.97;4987283;28;20484;-85
2022/08/30 05:36:19;;;;;;;17.92;14.07;;;;;;;22.99;58.67;99391.53;4995049;28;20412;-85
2022/08/30 05:38:45;;;;;;;24.35;14.68;;;;;;;22.96;58.73;99369.56;4994964;28;20481;-85
2022/08/30 05:41:11;;;;;;;32.95;13.40;;;;;;;23.17;58.39;99381.97;4992105;28;20022;-85
2022/08/30 05:43:37;;;;;;;21.23;12.95;;;;;;;23.37;58.14;99387.91;4987635;28;20485;-86
2022/08/30 05:46:07;;;;;;;22.92;13.10;;;;;;;23.57;57.69;99385.22;4995046;28;20437;-85
2022/08/30 05:48:33;;;;;;;26.57;14.60;;;;;;;23.74;56.72;99388.28;4992515;28;20040;-86
2022/08/30 05:51:15;;;;;;;17.85;13.10;;;;;;;23.78;56.20;99371.94;4987772;28;20077;-85
2022/08/30 05:53:42;;;;;;;16.75;12.90;;;;;;;24.05;55.90;99374.03;4993170;28;20037;-86
2022/08/30 05:56:10;;;;;;;22.17;12.73;;;;;;;24.18;55.18;99392.19;4993849;28;20040;-86
2022/08/30 05:58:38;;;;;;;35.92;13.82;;;;;;;24.03;54.45;99356.47;4994121;28;20452;-86
2022/08/30 06:01:05;;;;;;;20.42;12.98;;;;;;;24.26;54.08;99381.47;5011734;28;20025;-86
2022/08/30 06:03:33;;;;;;;19.45;13.02;;;;;;;24.43;54.07;99391.00;4994195;28;20030;-86
2022/08/30 06:06:00;;;;;;;30.02;13.32;;;;;;;24.45;53.97;99382.78;4994556;28;20490;-86
2022/08/30 06:08:26;;;;;;;15.95;11.57;;;;;;;24.53;52.95;99378.59;5007976;28;20485;-86
2022/08/30 06:10:51;;;;;;;19.75;11.88;;;;;;;24.63;52.85;99382.50;4983639;28;20040;-86
2022/08/30 06:13:17;;;;;;;19.65;11.23;;;;;;;24.56;52.58;99376.09;5010091;28;20407;-86
2022/08/30 06:15:43;;;;;;;31.80;12.38;;;;;;;24.56;52.55;99373.25;4992879;28;20120;-86
2022/08/30 06:18:10;;;;;;;18.33;11.68;;;;;;;24.64;52.42;99371.88;4992793;28;20034;-86
2022/08/30 06:20:43;;;;;;;20.83;11.65;;;;;;;24.57;51.32;99374.84;4992593;28;20030;-86
2022/08/30 06:23:09;;;;;;;20.38;12.15;;;;;;;24.65;50.90;99384.94;4991642;28;20594;-86
2022/08/30 06:25:37;;;;;;;22.83;12.18;;;;;;;24.60;51.13;99383.38;5010535;28;20056;-86
2022/08/30 06:28:04;;;;;;;17.25;12.13;;;;;;;24.47;50.49;99383.16;4992631;28;20060;-86
2022/08/30 06:30:30;;;;;;;16.75;11.75;;;;;;;24.49;50.85;99386.38;5010409;28;20026;-85
2022/08/30 06:32:55;;;;;;;16.58;11.55;;;;;;;24.59;51.02;99386.66;4992166;28;20385;-86
2022/08/30 06:35:21;;;;;;;25.45;13.15;;;;;;;24.58;50.79;99379.31;4992300;28;20029;-86
2022/08/30 06:37:46;;;;;;;17.00;11.13;;;;;;;24.48;50.51;99386.84;4993024;28;20041;-85
2022/08/30 06:40:13;;;;;;;18.42;11.02;;;;;;;24.44;51.13;99372.59;5009085;28;20413;-85
2022/08/30 06:42:38;;;;;;;17.77;10.95;;;;;;;24.62;50.97;99388.66;4992622;28;20140;-85
2022/08/30 06:45:05;;;;;;;27.67;11.95;;;;;;;24.72;51.09;99384.00;4991926;28;20200;-85
2022/08/30 06:47:30;;;;;;;28.02;13.52;;;;;;;24.74;50.23;99373.75;4993317;28;20034;-85
2022/08/30 06:49:57;;;;;;;20.33;12.35;;;;;;;24.65;50.54;99362.84;4993862;28;20413;-86
2022/08/30 06:52:22;;;;;;;17.70;12.88;;;;;;;24.89;51.21;99373.53;4994159;28;20069;-86
2022/08/30 06:54:48;;;;;;;15.57;11.50;;;;;;;24.91;50.62;99365.31;4993292;28;20108;-87
2022/08/30 06:57:14;;;;;;;15.55;10.98;;;;;;;24.98;50.59;99370.09;4993462;28;20033;-86
2022/08/30 06:59:39;;;;;;;18.23;11.73;;;;;;;24.98;50.47;99355.78;4993754;28;20105;-86
2022/08/30 07:02:06;;;;;;;21.52;11.13;;;;;;;24.89;49.95;99356.38;4994006;28;20030;-86
2022/08/30 07:04:32;;;;;;;17.95;11.75;;;;;;;25.05;49.90;99376.47;4992822;28;20033;-85
2022/08/30 07:06:58;;;;;;;20.73;11.15;;;;;;;25.08;50.06;99366.22;4993305;28;20025;-85
2022/08/30 07:09:23;;;;;;;17.95;12.02;;;;;;;25.13;50.04;99362.06;4992082;28;20025;-86
2022/08/30 07:11:50;;;;;;;25.85;12.57;;;;;;;25.23;49.12;99358.97;4993869;28;20032;-86
2022/08/30 07:14:16;;;;;;;20.05;11.23;;;;;;;25.22;49.01;99351.63;4993894;28;20036;-86
2022/08/30 07:16:43;;;;;;;11.88;10.25;;;;;;;25.43;48.04;99360.22;5011023;28;20030;-86
2022/08/30 07:19:08;;;;;;;23.33;11.57;;;;;;;25.40;47.68;99327.59;4993753;28;20465;-86
2022/08/30 07:21:37;;;;;;;23.98;12.07;;;;;;;25.89;47.75;99364.19;4993846;28;20061;-86
2022/08/30 07:24:04;;;;;;;18.92;10.75;;;;;;;26.07;46.17;99374.44;4992691;28;20033;-86
2022/08/30 07:26:33;;;;;;;20.70;10.98;;;;;;;26.01;45.80;99356.97;4991520;28;20022;-86
2022/08/30 07:29:00;;;;;;;18.25;10.63;;;;;;;26.24;45.75;99368.75;5006658;28;20047;-86
2022/08/30 07:31:26;;;;;;;25.98;11.20;;;;;;;26.24;46.59;99360.16;4991654;28;20397;-87
2022/08/30 07:33:52;;;;;;;25.15;11.85;;;;;;;26.10;45.58;99362.09;4993673;28;20108;-86
2022/08/30 07:36:18;;;;;;;21.83;10.68;;;;;;;26.40;45.65;99365.13;4993470;28;20030;-86
2022/08/30 07:38:45;;;;;;;17.25;10.57;;;;;;;26.41;45.48;99356.03;4992886;28;20026;-87
2022/08/30 07:41:19;;;;;;;22.17;11.98;;;;;;;26.51;44.58;99368.53;4992720;28;20037;-86
2022/08/30 07:43:45;;;;;;;18.25;10.63;;;;;;;26.37;43.66;99369.66;4992672;28;20046;-87
2022/08/30 07:46:11;;;;;;;22.35;11.38;;;;;;;26.53;43.76;99365.19;4993245;28;20065;-87
2022/08/30 07:48:36;;;;;;;21.70;11.82;;;;;;;26.84;43.38;99373.44;4992603;28;20026;-86
2022/08/30 07:51:03;;;;;;;18.70;10.93;;;;;;;26.98;42.59;99370.22;4993371;28;20026;-87
2022/08/30 07:53:30;;;;;;;18.83;10.20;;;;;;;27.11;42.94;99381.75;4995925;28;20462;-86
2022/08/30 07:55:55;;;;;;;25.13;12.52;;;;;;;26.96;43.62;99358.38;4994058;28;20025;-87
2022/08/30 07:58:21;;;;;;;18.48;11.63;;;;;;;27.31;42.91;99373.00;4994593;28;20387;-87
2022/08/30 08:00:47;;;;;;;20.63;11.00;;;;;;;27.13;43.14;99369.81;4986530;28;20485;-86
2022/08/30 08:03:13;;;;;;;22.50;11.57;;;;;;;27.36;43.24;99379.44;4994903;28;20399;-86
2022/08/30 08:05:43;;;;;;;23.80;10.80;;;;;;;27.46;42.98;99358.22;5013494;28;20044;-87
2022/08/30 08:08:10;;;;;;;18.48;12.15;;;;;;;27.70;42.73;99376.03;4993844;28;20165;-87
2022/08/30 08:10:37;;;;;;;24.08;12.18;;;;;;;27.48;42.34;99378.69;4997083;28;20025;-88
2022/08/30 08:13:04;;;;;;;21.73;10.43;;;;;;;27.52;42.66;99375.72;4995142;28;20026;-88
2022/08/30 08:15:30;;;;;;;19.65;11.20;;;;;;;27.77;42.36;99382.81;4996906;28;20033;-87
2022/08/30 08:17:56;;;;;;;23.33;11.23;;;;;;;27.82;41.37;99365.81;4997082;28;20105;-88
2022/08/30 08:20:21;;;;;;;17.75;11.32;;;;;;;28.02;41.57;99373.44;4997019;28;20130;-88
2022/08/30 08:22:47;;;;;;;18.70;11.77;;;;;;;27.95;41.74;99367.91;4997014;28;20120;-88
2022/08/30 08:25:13;;;;;;;20.45;10.80;;;;;;;28.24;40.54;99378.53;5013402;28;20477;-87
2022/08/30 08:27:39;;;;;;;21.35;11.00;;;;;;;27.91;40.27;99370.09;4996781;28;20113;-88
2022/08/30 08:30:06;;;;;;;26.50;10.98;;;;;;;28.11;40.69;99364.91;4997219;28;20128;-88
2022/08/30 08:32:31;;;;;;;16.42;10.65;;;;;;;28.36;39.71;99365.41;5014363;28;20592;-88
2022/08/30 08:34:57;;;;;;;16.50;10.93;;;;;;;28.08;39.51;99374.47;4994568;28;21756;-88
2022/08/30 08:37:22;;;;;;;25.73;11.20;;;;;;;28.13;40.47;99353.78;4995778;28;20026;-88
2022/08/30 08:39:48;;;;;;;23.10;11.05;;;;;;;28.15;39.96;99359.88;5014189;28;20033;-88
2022/08/30 08:42:37;;;;;;;24.75;12.50;;;;;;;28.28;40.20;99367.72;4996337;28;20417;-88
2022/08/30 08:45:04;;;;;;;20.80;11.40;;;;;;;28.57;39.89;99367.59;4993617;28;20100;-88
2022/08/30 08:47:40;;;;;;;13.65;10.80;;;;;;;28.70;39.40;99364.66;4995417;28;20029;-88
2022/08/30 08:50:16;;;;;;;24.92;10.50;;;;;;;28.96;39.57;99363.84;4996197;28;20022;-88
2022/08/30 08:55:57;;;;;;;16.50;11.07;;;;;;;28.68;40.13;99358.59;5009541;28;20045;-89
2022/08/30 08:58:29;;;;;;;25.25;10.65;;;;;;;28.71;40.86;99349.00;4995573;28;20029;-88
2022/08/30 09:00:56;;;;;;;20.08;10.05;;;;;;;29.03;39.00;99345.50;4996296;28;20029;-88
2022/08/30 09:03:25;;;;;;;16.60;10.40;;;;;;;28.99;39.88;99342.75;4994669;28;20041;-88
2022/08/30 09:05:50;;;;;;;16.17;10.60;;;;;;;29.10;39.84;99346.06;4995434;28;20036;-89
2022/08/30 09:08:18;;;;;;;14.20;11.18;;;;;;;29.20;40.49;99355.59;4995329;28;20108;-88
2022/08/30 09:10:59;;;;;;;16.48;10.75;;;;;;;29.34;41.00;99353.47;4995571;28;20028;-89
2022/08/30 09:13:25;;;;;;;24.45;11.15;;;;;;;29.18;39.83;99340.84;4995957;28;20523;-88
2022/08/30 09:15:53;;;;;;;21.30;11.73;;;;;;;29.14;40.71;99343.06;4996360;28;20022;-88
2022/08/30 09:18:18;;;;;;;31.70;12.63;;;;;;;29.29;40.32;99344.13;4996182;28;20105;-88
2022/08/30 09:20:47;;;;;;;35.75;12.00;;;;;;;29.25;39.98;99337.72;4995817;28;20018;-89
2022/08/30 09:23:13;;;;;;;14.23;11.53;;;;;;;29.53;40.00;99340.81;4995248;28;20516;-89
2022/08/30 09:25:52;;;;;;;17.98;11.88;;;;;;;29.58;40.62;99332.84;4996195;28;20041;-88
2022/08/30 09:28:29;;;;;;;16.95;11.75;;;;;;;29.78;39.99;99330.38;5013730;28;20026;-89
2022/08/30 09:31:04;;;;;;;23.98;11.95;;;;;;;29.63;39.94;99335.13;4992521;28;20510;-89
2022/08/30 09:33:30;;;;;;;17.55;12.32;;;;;;;29.82;39.81;99338.91;4989234;28;20030;-89
2022/08/30 09:36:08;;;;;;;15.23;11.73;;;;;;;29.51;39.55;99340.47;4997507;28;20026;-89
2022/08/30 09:38:34;;;;;;;20.40;12.77;;;;;;;29.69;39.30;99333.25;4996397;28;20034;-89
2022/08/30 09:41:28;;;;;;;12.27;10.65;;;;;;;29.82;38.67;99328.19;4997240;28;20029;-89
2022/08/30 09:44:15;;;;;;;15.38;11.70;;;;;;;29.64;38.42;99328.88;4999427;28;20049;-89
2022/08/30 09:46:48;;;;;;;19.63;13.05;;;;;;;29.80;38.50;99330.72;4998679;28;20029;-89
2022/08/30 09:49:40;;;;;;;16.42;11.23;;;;;;;30.09;37.83;99323.84;4994766;28;20065;-89
2022/08/30 09:52:30;;;;;;;15.48;12.00;;;;;;;30.06;37.90;99324.81;4994058;28;20065;-90
2022/08/30 09:54:58;;;;;;;16.65;10.10;;;;;;;30.22;36.76;99331.59;4993374;28;20481;-87
2022/08/30 09:57:55;;;;;;;13.73;9.80;;;;;;;29.87;36.57;99329.66;4993912;28;20037;-87
2022/08/30 10:00:23;;;;;;;18.00;11.10;;;;;;;29.73;35.79;99307.97;4992864;28;20550;-87
2022/08/30 10:02:52;;;;;;;17.70;11.75;;;;;;;30.02;34.95;99315.44;5009299;28;20036;-87
2022/08/30 10:05:39;;;;;;;19.15;10.85;;;;;;;29.79;35.60;99313.91;4993605;28;20038;-88
2022/08/30 10:08:49;;;;;;;15.32;11.57;;;;;;;29.94;34.44;99312.06;4994119;28;20064;-87
2022/08/30 10:11:35;;;;;;;18.50;11.13;;;;;;;30.33;34.69;99310.94;4995708;28;20034;-88
2022/08/30 10:14:15;;;;;;;20.55;10.77;;;;;;;30.32;34.19;99298.63;4993546;28;20088;-87
2022/08/30 10:16:51;;;;;;;21.38;11.55;;;;;;;30.48;33.59;99305.38;4993258;28;20398;-88
2022/08/30 10:19:29;;;;;;;13.65;10.77;;;;;;;30.67;32.62;99303.34;4993107;28;20036;-88
2022/08/30 10:22:07;;;;;;;21.58;9.57;;;;;;;30.64;32.79;99293.56;4993467;28;20030;-87
2022/08/30 10:24:46;;;;;;;17.10;10.57;;;;;;;30.79;32.12;99284.31;4992772;28;20485;-87
2022/08/30 10:27:34;;;;;;;20.40;11.32;;;;;;;30.96;31.15;99288.47;4991451;28;20026;-87
2022/08/30 10:30:04;;;;;;;13.18;10.45;;;;;;;31.04;31.85;99297.59;4994378;28;20029;-88
2022/08/30 10:32:43;;;;;;;17.25;11.38;;;;;;;31.15;31.40;99287.66;4993456;28;20029;-88
2022/08/30 10:35:11;;;;;;;19.67;9.75;;;;;;;31.33;30.20;99292.63;4993728;28;20022;-88
2022/08/30 10:37:41;;;;;;;16.50;9.93;;;;;;;31.29;28.80;99274.69;5009770;28;20531;-87
2022/08/30 10:43:13;;;;;;;15.90;11.15;;;;;;;31.55;31.15;99271.41;5010246;28;20068;-88
2022/08/30 10:45:46;;;;;;;13.57;9.75;;;;;;;31.46;31.10;99273.03;4993449;28;20017;-88
2022/08/30 10:48:46;;;;;;;14.77;10.10;;;;;;;31.41;31.75;99275.75;4993395;28;20021;-89
2022/08/30 10:51:24;;;;;;;16.08;10.93;;;;;;;31.67;32.42;99264.63;4952152;28;20034;-88
2022/08/30 10:53:55;;;;;;;15.60;10.43;;;;;;;32.02;31.15;99263.38;4994057;28;20026;-87
2022/08/30 10:56:25;;;;;;;24.63;11.27;;;;;;;31.71;31.42;99258.69;4992226;28;20425;-88
2022/08/30 10:58:53;;;;;;;10.57;9.43;;;;;;;31.59;31.63;99260.47;4993576;28;20409;-88
2022/08/30 11:01:34;;;;;;;13.93;9.15;;;;;;;31.61;31.16;99223.22;4993734;28;20040;-87
2022/08/30 11:04:25;;;;;;;18.48;9.82;;;;;;;31.99;31.17;99250.72;4992700;28;20113;-88
2022/08/30 11:07:18;;;;;;;13.50;8.65;;;;;;;31.86;30.98;99258.81;4987133;28;20363;-87
2022/08/30 11:10:34;;;;;;;20.63;10.48;;;;;;;31.89;31.14;99252.81;4974585;28;20037;-87
2022/08/30 11:13:07;;;;;;;13.70;9.57;;;;;;;31.41;31.37;99244.78;4952903;28;20100;-87
2022/08/30 11:16:07;;;;;;;21.02;10.98;;;;;;;32.05;31.11;99263.19;4992340;28;20069;-87
2022/08/30 11:18:50;;;;;;;17.88;11.10;;;;;;;31.86;31.05;99245.13;4992564;28;20500;-87
2022/08/30 11:21:20;;;;;;;11.63;9.15;;;;;;;31.52;30.97;99252.94;4993790;28;20026;-87
2022/08/30 11:24:02;;;;;;;12.15;8.70;;;;;;;31.78;30.31;99241.78;4993587;28;20018;-87
2022/08/30 11:26:49;;;;;;;13.38;8.27;;;;;;;31.98;30.13;99254.91;4991142;28;20041;-87
2022/08/30 11:29:43;;;;;;;15.90;10.05;;;;;;;32.30;31.03;99257.44;4995026;28;20038;-88
2022/08/30 11:32:12;;;;;;;20.40;10.80;;;;;;;32.54;30.72;99248.78;4996246;28;20021;-88
2022/08/30 11:34:44;;;;;;;17.50;10.00;;;;;;;32.66;30.62;99251.91;4996682;28;20025;-87